Pagrindinis puslapis
METAR-TAF:

METAR-TAF

Oro uostai :

Sent Džonsas, Niufaundlandas ir Labradoras, Kanada

platuma: 47-37N, ilguma: 052-44W, Aukštis: 134 m

Dabartinis oras

Ataskaita buvo paskelbta 30 minutes, ne 01:00 UTC
Vėjas 16 kt iš Vakarų
Temperatūra 10°C
Drėgmė 76%
Slėgis 1020 hPa
Matomumas: 24.1 km
Giedras dangus

METAR: CYYT 200100Z 26016KT 15SM SKC 10/06 A3012 RMK SLP205

Laikas: 23:00 (01:30 UTC)

Prognozė

Ataskaita buvo paskelbta 1 valandą ir 50 minutes, ne 23:40 UTC
Prognozė galioja nuo 20 metu 00 UTC su 20 metu 24 UTC
Vėjas 10 kt iš Vakarų
Matomumas: 10 km
Mažai debesys ne aukštis 22000 ft
Tapsmas
nuo 20 metu 16 UTC su 20 metu 18 UTC
Vėjas 12 kt iš Pietų
Nuo 20 metu 2200 UTC
Vėjas 10 kt iš Pietų
Matomumas: 10 km
Su prošvaistėmis ne aukštis 2000 ft
Su prošvaistėmis ne aukštis 8000 ft
Tikimybė 30%
nuo 20 metu 22 UTC su 20 metu 24 UTC
Su prošvaistėmis ne aukštis 400 ft

TAF: CYYT 192340Z 2000/2024 27010KT P6SM FEW220 BECMG 2016/2018 18012KT FM202200 18010KT P6SM BKN020 BKN080 PROB30 2022/2024 BKN004 RMK NXT FCST BY 200600Z

Orai ataskaitas ir orų prognozės (METAR, TAF).

turimą stotys yra geltonos ir raudonos taškus žemėlapyje.

Perkelti pele per norėdami pamatyti stoties vardą.

Tada spustelėkite, norėdami matyti oro stebėjimo ir prognozės.

Norėdami pakeisti žemėlapį: spustelėkite ant žalios mygtukų su juodo kryžiaus žemyn,; žalią mygtuką su brūkšneliu, jei norite nutolinti; arba žalių rodyklių gretimoms žemėlapius.


METAR-TAF: